Time;durP1;ratioP1;P1;durP2;ratioP2;P2;SDS_P1;SDS_P2;PMS_P1;PMS_P2;Temp;Humidity;BMP_temperature;BMP_pressure;BME280_temperature;BME280_humidity;BME280_pressure;Samples;Min_cycle;Max_cycle;Signal;HPM_P1;HPM_P2
2022/10/19 00:00:43;;;;;;;;;;;20.40;49.20;;;;;;5030351;28;19921;-66
2022/10/19 00:03:09;;;;;;;;;;;20.40;49.30;;;;;;5030441;28;19975;-66
2022/10/19 00:05:36;;;;;;;;;;;20.40;49.30;;;;;;5030741;28;19976;-65
2022/10/19 00:08:03;;;;;;;;;;;20.40;49.30;;;;;;5031339;28;19944;-66
2022/10/19 00:10:31;;;;;;;;;;;20.40;49.30;;;;;;5033116;28;19921;-66
2022/10/19 00:12:58;;;;;;;;;;;20.40;49.20;;;;;;5030237;28;19921;-66
2022/10/19 00:15:24;;;;;;;;;;;20.40;49.20;;;;;;5033245;28;19921;-66
2022/10/19 00:17:51;;;;;;;;;;;20.40;49.20;;;;;;5030706;28;19921;-65
2022/10/19 00:20:18;;;;;;;;;;;20.40;49.20;;;;;;5022299;28;19921;-65
2022/10/19 00:22:45;;;;;;;;;;;20.40;49.20;;;;;;5032623;28;19960;-65
2022/10/19 00:25:11;;;;;;;;;;;20.40;49.20;;;;;;5033654;28;19947;-66
2022/10/19 00:27:39;;;;;;;;;;;20.40;49.20;;;;;;5030348;28;19921;-65
2022/10/19 00:30:07;;;;;;;;;;;20.40;49.20;;;;;;5037697;28;19921;-66
2022/10/19 00:32:33;;;;;;;;;;;20.40;49.10;;;;;;5034309;28;19921;-65
2022/10/19 00:35:00;;;;;;;;;;;20.40;49.10;;;;;;5037663;28;20003;-66
2022/10/19 00:37:27;;;;;;;;;;;20.40;49.10;;;;;;5033882;28;19921;-65
2022/10/19 00:39:54;;;;;;;;;;;20.40;49.10;;;;;;5036376;28;19964;-65
2022/10/19 00:42:20;;;;;;;;;;;20.40;49.10;;;;;;5021044;28;19961;-65
2022/10/19 00:44:59;;;;;;;;;;;20.40;49.10;;;;;;5016735;28;19925;-66
2022/10/19 00:47:26;;;;;;;;;;;20.40;49.10;;;;;;5016363;28;19945;-66
2022/10/19 00:49:52;;;;;;;;;;;20.40;49.10;;;;;;5018411;28;19928;-65
2022/10/19 00:52:19;;;;;;;;;;;20.40;49.10;;;;;;5037692;28;19921;-66
2022/10/19 00:54:47;;;;;;;;;;;20.40;49.10;;;;;;5033714;28;19980;-66
2022/10/19 00:57:13;;;;;;;;;;;20.40;49.10;;;;;;5034403;28;19921;-66
2022/10/19 00:59:40;;;;;;;;;;;20.40;49.10;;;;;;5052861;28;19925;-66
2022/10/19 01:02:08;;;;;;;;;;;20.40;49.10;;;;;;5056160;28;19924;-66
2022/10/19 01:04:36;;;;;;;;;;;20.40;49.10;;;;;;5034696;28;20366;-66
2022/10/19 01:07:03;;;;;;;;;;;20.40;49.10;;;;;;5035716;28;19928;-66
2022/10/19 01:09:30;;;;;;;;;;;20.40;49.10;;;;;;5037535;28;19921;-65
2022/10/19 01:11:57;;;;;;;;;;;20.40;49.10;;;;;;5033965;28;19921;-66
2022/10/19 01:14:27;;;;;;;;;;;20.40;49.10;;;;;;5033415;28;19928;-65
2022/10/19 01:16:55;;;;;;;;;;;20.40;49.10;;;;;;5037099;28;20008;-66
2022/10/19 01:19:28;;;;;;;;;;;20.40;49.10;;;;;;5035149;28;19957;-65
2022/10/19 01:21:56;;;;;;;;;;;20.40;49.10;;;;;;5035628;28;20023;-66
2022/10/19 01:24:27;;;;;;;;;;;20.40;49.40;;;;;;5035250;28;19968;-65
2022/10/19 01:27:06;;;;;;;;;;;20.40;49.20;;;;;;5032760;28;19921;-66
2022/10/19 01:29:37;;;;;;;;;;;20.40;49.20;;;;;;5033777;28;19921;-65
2022/10/19 01:32:06;;;;;;;;;;;20.40;49.20;;;;;;5033469;28;19967;-66
2022/10/19 01:34:34;;;;;;;;;;;20.40;49.10;;;;;;5035501;28;19967;-66
2022/10/19 01:37:01;;;;;;;;;;;20.40;49.20;;;;;;5015724;28;19925;-66
2022/10/19 01:39:29;;;;;;;;;;;20.40;49.10;;;;;;5025592;28;19921;-65
2022/10/19 01:41:56;;;;;;;;;;;20.40;49.10;;;;;;5036387;28;19921;-65
2022/10/19 01:44:25;;;;;;;;;;;20.40;49.10;;;;;;5034491;28;19967;-66
2022/10/19 01:46:52;;;;;;;;;;;20.40;49.10;;;;;;5036769;28;19921;-65
2022/10/19 01:49:22;;;;;;;;;;;20.40;49.10;;;;;;5035141;28;20007;-66
2022/10/19 01:51:49;;;;;;;;;;;20.40;49.20;;;;;;5034823;28;19921;-65
2022/10/19 01:54:16;;;;;;;;;;;20.40;49.10;;;;;;5035339;28;19933;-66
2022/10/19 01:56:44;;;;;;;;;;;20.30;49.00;;;;;;5034870;28;19921;-66
2022/10/19 01:59:10;;;;;;;;;;;20.30;49.00;;;;;;5033626;28;19921;-66
2022/10/19 02:01:37;;;;;;;;;;;20.30;49.00;;;;;;5032726;28;19921;-65
2022/10/19 02:04:04;;;;;;;;;;;20.30;49.00;;;;;;5034758;28;19921;-66
2022/10/19 02:06:32;;;;;;;;;;;20.30;49.00;;;;;;5031073;28;19987;-65
2022/10/19 02:08:59;;;;;;;;;;;20.30;49.00;;;;;;5032743;28;19924;-65
2022/10/19 02:11:26;;;;;;;;;;;20.30;49.00;;;;;;5035459;28;20055;-66
2022/10/19 02:13:56;;;;;;;;;;;20.20;48.90;;;;;;5032707;28;19967;-66
2022/10/19 02:16:24;;;;;;;;;;;20.20;48.90;;;;;;5035182;28;19928;-66
2022/10/19 02:18:50;;;;;;;;;;;20.20;48.90;;;;;;5019996;28;19922;-65
2022/10/19 02:21:17;;;;;;;;;;;20.20;49.00;;;;;;5031589;28;19921;-65
2022/10/19 02:23:46;;;;;;;;;;;20.10;48.80;;;;;;5033796;28;20018;-66
2022/10/19 02:26:13;;;;;;;;;;;20.20;49.00;;;;;;5032657;28;19925;-65
2022/10/19 02:28:39;;;;;;;;;;;20.10;48.90;;;;;;5033503;28;19953;-66
2022/10/19 02:31:06;;;;;;;;;;;20.10;48.90;;;;;;5031332;28;19961;-65
2022/10/19 02:33:33;;;;;;;;;;;20.10;48.90;;;;;;5033919;28;19921;-66
2022/10/19 02:36:00;;;;;;;;;;;20.10;48.90;;;;;;5032662;28;19921;-65
2022/10/19 02:38:26;;;;;;;;;;;20.10;48.90;;;;;;5034261;28;19921;-66
2022/10/19 02:40:57;;;;;;;;;;;20.00;48.90;;;;;;5032351;28;19922;-65
2022/10/19 02:43:24;;;;;;;;;;;20.10;49.00;;;;;;5034126;28;19928;-66
2022/10/19 02:45:51;;;;;;;;;;;20.00;48.90;;;;;;5032117;28;19967;-66
2022/10/19 02:48:19;;;;;;;;;;;20.00;48.90;;;;;;5032018;28;19921;-65
2022/10/19 02:50:46;;;;;;;;;;;20.00;49.00;;;;;;5031178;28;19921;-66
2022/10/19 02:53:13;;;;;;;;;;;20.00;48.80;;;;;;5034211;28;19925;-66
2022/10/19 02:55:39;;;;;;;;;;;20.00;48.50;;;;;;5031663;28;19927;-66
2022/10/19 02:58:07;;;;;;;;;;;20.00;48.50;;;;;;5032362;28;19929;-66
2022/10/19 03:00:34;;;;;;;;;;;20.00;48.40;;;;;;5033424;28;20324;-66
2022/10/19 03:03:01;;;;;;;;;;;20.00;48.50;;;;;;5030519;28;19925;-65
2022/10/19 03:05:28;;;;;;;;;;;20.00;48.60;;;;;;5034341;28;19927;-66
2022/10/19 03:07:55;;;;;;;;;;;20.00;48.50;;;;;;5030966;28;19925;-66
2022/10/19 03:10:22;;;;;;;;;;;20.00;48.40;;;;;;5032872;28;19928;-65
2022/10/19 03:12:48;;;;;;;;;;;19.90;48.30;;;;;;5033622;28;19975;-66
2022/10/19 03:15:16;;;;;;;;;;;19.90;48.30;;;;;;5033036;28;19957;-66
2022/10/19 03:17:43;;;;;;;;;;;19.90;48.30;;;;;;5029599;28;20015;-66
2022/10/19 03:20:10;;;;;;;;;;;19.90;48.20;;;;;;5014258;28;19921;-66
2022/10/19 03:22:36;;;;;;;;;;;19.90;48.10;;;;;;5020705;28;20417;-66
2022/10/19 03:25:03;;;;;;;;;;;19.90;48.20;;;;;;5032931;28;19921;-65
2022/10/19 03:27:30;;;;;;;;;;;19.90;48.10;;;;;;5033883;28;19922;-66
2022/10/19 03:29:56;;;;;;;;;;;19.90;48.20;;;;;;5032285;28;20020;-66
2022/10/19 03:32:25;;;;;;;;;;;19.90;48.20;;;;;;5032698;28;20286;-66
2022/10/19 03:34:51;;;;;;;;;;;19.90;48.20;;;;;;5031437;28;19975;-66
2022/10/19 03:37:18;;;;;;;;;;;19.90;48.20;;;;;;5034117;28;20339;-66
2022/10/19 03:39:45;;;;;;;;;;;19.90;48.20;;;;;;5031215;28;20377;-66
2022/10/19 03:42:11;;;;;;;;;;;19.90;48.20;;;;;;5034227;28;20053;-66
2022/10/19 03:44:38;;;;;;;;;;;20.00;48.20;;;;;;5030904;28;20019;-66
2022/10/19 03:47:05;;;;;;;;;;;20.00;48.70;;;;;;5031144;28;19925;-66
2022/10/19 03:49:33;;;;;;;;;;;19.90;48.00;;;;;;5031685;28;19964;-66
2022/10/19 03:52:00;;;;;;;;;;;20.00;48.00;;;;;;5030907;28;19952;-66
2022/10/19 03:54:26;;;;;;;;;;;20.00;47.80;;;;;;5034759;28;20027;-66
2022/10/19 03:56:53;;;;;;;;;;;19.90;47.60;;;;;;5033822;28;19944;-66
2022/10/19 03:59:20;;;;;;;;;;;19.90;47.50;;;;;;5034137;28;19928;-66
2022/10/19 04:01:47;;;;;;;;;;;19.90;47.60;;;;;;5032636;28;19921;-66
2022/10/19 04:04:14;;;;;;;;;;;19.90;47.60;;;;;;5033916;28;19921;-65
2022/10/19 04:06:43;;;;;;;;;;;19.90;47.60;;;;;;5037271;28;19995;-66
2022/10/19 04:09:11;;;;;;;;;;;19.90;47.60;;;;;;5036183;28;19921;-66
2022/10/19 04:11:37;;;;;;;;;;;19.90;47.50;;;;;;5038446;28;20307;-66
2022/10/19 04:14:04;;;;;;;;;;;19.90;47.40;;;;;;5034373;28;19975;-66
2022/10/19 04:16:31;;;;;;;;;;;19.90;47.80;;;;;;5034711;28;19921;-66
2022/10/19 04:18:58;;;;;;;;;;;19.80;46.90;;;;;;5037775;28;19957;-66
2022/10/19 04:21:25;;;;;;;;;;;19.80;47.00;;;;;;5035173;28;20022;-66
2022/10/19 04:23:54;;;;;;;;;;;19.80;47.10;;;;;;5035058;28;19987;-66
2022/10/19 04:26:20;;;;;;;;;;;19.80;47.20;;;;;;5036344;28;20039;-66
2022/10/19 04:28:47;;;;;;;;;;;19.80;47.20;;;;;;5034380;28;20351;-66
2022/10/19 04:31:14;;;;;;;;;;;19.80;47.20;;;;;;5037020;28;19920;-67
2022/10/19 04:33:41;;;;;;;;;;;19.80;47.30;;;;;;5037155;28;19921;-67
2022/10/19 04:36:08;;;;;;;;;;;19.80;47.30;;;;;;5034441;28;19928;-66
2022/10/19 04:38:36;;;;;;;;;;;19.80;47.30;;;;;;5035763;28;20020;-66
2022/10/19 04:41:04;;;;;;;;;;;19.80;47.30;;;;;;5033913;28;19967;-66
2022/10/19 04:43:31;;;;;;;;;;;19.80;47.30;;;;;;5036082;28;19944;-66
2022/10/19 04:46:01;;;;;;;;;;;19.80;47.20;;;;;;5034791;28;20019;-66
2022/10/19 04:48:28;;;;;;;;;;;19.80;47.00;;;;;;5034415;28;19979;-66
2022/10/19 04:50:55;;;;;;;;;;;19.80;46.80;;;;;;5038024;28;19967;-66
2022/10/19 04:53:22;;;;;;;;;;;19.80;46.80;;;;;;5032924;28;19921;-66
2022/10/19 04:55:49;;;;;;;;;;;19.70;46.70;;;;;;5034272;28;19922;-66
2022/10/19 04:58:17;;;;;;;;;;;19.70;46.80;;;;;;5033259;28;19979;-66
2022/10/19 05:00:43;;;;;;;;;;;19.70;46.80;;;;;;5027921;28;20020;-66
2022/10/19 05:03:10;;;;;;;;;;;19.70;46.80;;;;;;5049236;28;19927;-66
2022/10/19 05:05:37;;;;;;;;;;;19.70;46.70;;;;;;5029374;28;19971;-66
2022/10/19 05:08:04;;;;;;;;;;;19.70;46.70;;;;;;5034594;28;20016;-66
2022/10/19 05:10:30;;;;;;;;;;;19.70;46.80;;;;;;5035310;28;19921;-66
2022/10/19 05:12:57;;;;;;;;;;;19.70;46.80;;;;;;5032213;28;19980;-66
2022/10/19 05:15:25;;;;;;;;;;;19.70;46.80;;;;;;5034160;28;19960;-66
2022/10/19 05:17:52;;;;;;;;;;;19.70;46.90;;;;;;5034007;28;19952;-66
2022/10/19 05:20:18;;;;;;;;;;;19.70;46.90;;;;;;5037151;28;19957;-66
2022/10/19 05:22:45;;;;;;;;;;;19.70;47.00;;;;;;5032880;28;19921;-66
2022/10/19 05:25:12;;;;;;;;;;;19.70;47.10;;;;;;5032716;28;19960;-66
2022/10/19 05:27:38;;;;;;;;;;;19.70;47.10;;;;;;5035466;28;19925;-66
2022/10/19 05:30:07;;;;;;;;;;;19.70;47.10;;;;;;5033728;28;20346;-66
2022/10/19 05:32:35;;;;;;;;;;;19.70;47.10;;;;;;5035405;28;19925;-66
2022/10/19 05:35:02;;;;;;;;;;;19.80;47.20;;;;;;5027634;28;20372;-66
2022/10/19 05:37:28;;;;;;;;;;;19.80;47.20;;;;;;5031763;28;19971;-66
2022/10/19 05:39:55;;;;;;;;;;;19.80;47.20;;;;;;5032847;28;19921;-66
2022/10/19 05:42:22;;;;;;;;;;;19.80;47.10;;;;;;5033152;28;19921;-66
2022/10/19 05:44:48;;;;;;;;;;;19.80;47.10;;;;;;5032884;28;19971;-66
2022/10/19 05:47:15;;;;;;;;;;;19.80;47.10;;;;;;5032980;28;19943;-66
2022/10/19 05:49:43;;;;;;;;;;;19.80;47.10;;;;;;5035802;28;19921;-66
2022/10/19 05:52:10;;;;;;;;;;;19.80;47.10;;;;;;5033597;28;19956;-66
2022/10/19 05:54:37;;;;;;;;;;;19.80;47.10;;;;;;5034410;28;19967;-64
2022/10/19 05:57:04;;;;;;;;;;;19.80;47.10;;;;;;5035414;28;19964;-66
2022/10/19 05:59:30;;;;;;;;;;;19.80;47.00;;;;;;5032904;28;19921;-66
2022/10/19 06:01:57;;;;;;;;;;;19.90;47.00;;;;;;5033163;28;19921;-65
2022/10/19 06:04:24;;;;;;;;;;;19.90;47.00;;;;;;5035536;28;19929;-66
2022/10/19 06:06:52;;;;;;;;;;;19.90;47.00;;;;;;5034464;28;19921;-66
2022/10/19 06:09:19;;;;;;;;;;;19.80;47.00;;;;;;5032863;28;19928;-66
2022/10/19 06:11:45;;;;;;;;;;;19.90;47.00;;;;;;5021542;28;19921;-66
2022/10/19 06:14:13;;;;;;;;;;;19.90;47.00;;;;;;5034683;28;19933;-66
2022/10/19 06:16:39;;;;;;;;;;;19.90;47.00;;;;;;5023462;28;19929;-66
2022/10/19 06:19:06;;;;;;;;;;;19.90;47.00;;;;;;5048758;28;19921;-66
2022/10/19 06:21:34;;;;;;;;;;;19.90;47.00;;;;;;5028707;28;19956;-66
2022/10/19 06:24:02;;;;;;;;;;;19.90;46.80;;;;;;5035873;28;19928;-66
2022/10/19 06:26:29;;;;;;;;;;;19.90;46.70;;;;;;5012648;28;19922;-66
2022/10/19 06:28:56;;;;;;;;;;;19.90;46.70;;;;;;5015929;28;19922;-66
2022/10/19 06:31:23;;;;;;;;;;;19.90;46.80;;;;;;5013022;28;19971;-66
2022/10/19 06:33:50;;;;;;;;;;;19.90;46.60;;;;;;5025230;28;19921;-66
2022/10/19 06:36:18;;;;;;;;;;;19.80;46.50;;;;;;5034652;28;19928;-66
2022/10/19 06:38:44;;;;;;;;;;;19.80;46.60;;;;;;5035221;28;19932;-66
2022/10/19 06:41:12;;;;;;;;;;;19.80;46.60;;;;;;5032645;28;19921;-66
2022/10/19 06:43:41;;;;;;;;;;;19.80;46.70;;;;;;5032752;28;19921;-65
2022/10/19 06:46:08;;;;;;;;;;;19.80;46.70;;;;;;5035472;28;19921;-66
2022/10/19 06:48:35;;;;;;;;;;;19.80;46.70;;;;;;5033577;28;19925;-66
2022/10/19 06:51:02;;;;;;;;;;;19.80;46.70;;;;;;5034611;28;19968;-71
2022/10/19 06:53:30;;;;;;;;;;;19.80;46.80;;;;;;5035338;28;19968;-70
2022/10/19 06:55:57;;;;;;;;;;;19.80;46.70;;;;;;5035137;28;19975;-72
2022/10/19 06:58:25;;;;;;;;;;;19.80;46.50;;;;;;5031092;28;20291;-72
2022/10/19 07:00:56;;;;;;;;;;;19.80;46.20;;;;;;5041178;28;19974;-72
2022/10/19 07:03:23;;;;;;;;;;;19.70;45.90;;;;;;5026308;28;19928;-72
2022/10/19 07:05:53;;;;;;;;;;;19.70;45.70;;;;;;5033800;28;19968;-71
2022/10/19 07:08:20;;;;;;;;;;;19.70;45.80;;;;;;5037562;28;19921;-72
2022/10/19 07:10:49;;;;;;;;;;;19.60;45.80;;;;;;5038102;28;19921;-69
2022/10/19 07:13:16;;;;;;;;;;;19.60;46.00;;;;;;5033100;28;20024;-69
2022/10/19 07:15:44;;;;;;;;;;;19.60;46.20;;;;;;5034842;28;19928;-69
2022/10/19 07:18:11;;;;;;;;;;;19.60;46.30;;;;;;5035745;28;20012;-69
2022/10/19 07:20:38;;;;;;;;;;;19.60;46.40;;;;;;5032515;28;19921;-69
2022/10/19 07:23:05;;;;;;;;;;;19.60;46.40;;;;;;5032611;28;19921;-70
2022/10/19 07:25:31;;;;;;;;;;;19.60;46.50;;;;;;5035971;28;19921;-70
2022/10/19 07:27:58;;;;;;;;;;;19.70;46.70;;;;;;5035352;28;19921;-70
2022/10/19 07:30:25;;;;;;;;;;;19.60;46.60;;;;;;5024189;28;19922;-69
2022/10/19 07:32:53;;;;;;;;;;;19.60;46.60;;;;;;5015250;28;19960;-68
2022/10/19 07:35:20;;;;;;;;;;;19.70;46.70;;;;;;5031464;28;19963;-68
2022/10/19 07:37:46;;;;;;;;;;;19.70;46.70;;;;;;5030303;28;19928;-68
2022/10/19 07:40:13;;;;;;;;;;;19.70;46.70;;;;;;5033327;28;19925;-68
2022/10/19 07:42:40;;;;;;;;;;;19.80;46.90;;;;;;5035589;28;19925;-70
2022/10/19 07:45:07;;;;;;;;;;;19.80;46.90;;;;;;5045298;28;19925;-68
2022/10/19 07:47:34;;;;;;;;;;;19.80;46.90;;;;;;5056129;28;19944;-69
2022/10/19 07:50:02;;;;;;;;;;;19.80;46.90;;;;;;5032686;28;19944;-68
2022/10/19 07:52:28;;;;;;;;;;;19.80;46.90;;;;;;5032380;28;20015;-68
2022/10/19 07:54:55;;;;;;;;;;;19.90;47.00;;;;;;5031879;28;20505;-70
2022/10/19 07:57:22;;;;;;;;;;;19.90;47.00;;;;;;5032523;28;19921;-68
2022/10/19 07:59:48;;;;;;;;;;;19.90;47.00;;;;;;5034573;28;19967;-69
2022/10/19 08:02:15;;;;;;;;;;;19.90;47.00;;;;;;5030877;28;19960;-69
2022/10/19 08:04:42;;;;;;;;;;;19.90;47.00;;;;;;5032727;28;19921;-69
2022/10/19 08:07:10;;;;;;;;;;;19.90;47.00;;;;;;5034088;28;19952;-71
2022/10/19 08:09:37;;;;;;;;;;;19.90;47.70;;;;;;5031970;28;19921;-69
2022/10/19 08:12:04;;;;;;;;;;;19.90;47.10;;;;;;5033859;28;19922;-71
2022/10/19 08:14:31;;;;;;;;;;;19.90;47.10;;;;;;5034147;28;19921;-69
2022/10/19 08:16:57;;;;;;;;;;;19.90;47.00;;;;;;5031347;28;19921;-69
2022/10/19 08:19:24;;;;;;;;;;;19.90;47.10;;;;;;5035845;28;19921;-67
2022/10/19 08:21:51;;;;;;;;;;;20.00;47.20;;;;;;5032703;28;19944;-70
2022/10/19 08:24:19;;;;;;;;;;;20.00;47.20;;;;;;5033721;28;19949;-70
2022/10/19 08:26:46;;;;;;;;;;;20.00;47.20;;;;;;5041835;28;19932;-70
2022/10/19 08:29:13;;;;;;;;;;;20.00;47.20;;;;;;5042705;28;19925;-70
2022/10/19 08:31:40;;;;;;;;;;;20.00;47.20;;;;;;5031382;28;20248;-70
2022/10/19 08:34:07;;;;;;;;;;;20.00;47.30;;;;;;5034806;28;19921;-71
2022/10/19 08:36:34;;;;;;;;;;;20.00;47.30;;;;;;5041398;28;19979;-70
2022/10/19 08:39:01;;;;;;;;;;;20.00;47.30;;;;;;5033064;28;19975;-70
2022/10/19 08:41:31;;;;;;;;;;;20.10;47.30;;;;;;5030652;28;19963;-69
2022/10/19 08:44:12;;;;;;;;;;;20.10;47.30;;;;;;5030175;28;19975;-69
2022/10/19 08:46:41;;;;;;;;;;;20.10;47.30;;;;;;5020471;28;19925;-68
2022/10/19 08:49:08;;;;;;;;;;;20.10;47.00;;;;;;5031080;28;19947;-69
2022/10/19 08:51:38;;;;;;;;;;;20.10;47.00;;;;;;5037375;28;19972;-68
2022/10/19 08:54:10;;;;;;;;;;;20.10;47.10;;;;;;5021431;28;19960;-68
2022/10/19 08:56:40;;;;;;;;;;;20.10;47.10;;;;;;5034445;28;20027;-68
2022/10/19 08:59:09;;;;;;;;;;;20.10;47.10;;;;;;5033954;28;19943;-68
2022/10/19 09:01:37;;;;;;;;;;;20.10;47.20;;;;;;5037298;28;20385;-70
2022/10/19 09:04:04;;;;;;;;;;;20.10;47.10;;;;;;5034593;28;19921;-69
2022/10/19 09:06:32;;;;;;;;;;;20.10;47.10;;;;;;5035598;28;19967;-69
2022/10/19 09:08:58;;;;;;;;;;;20.10;47.00;;;;;;5035904;28;20028;-68
2022/10/19 09:11:25;;;;;;;;;;;20.10;47.00;;;;;;5033869;28;19925;-68
2022/10/19 09:13:58;;;;;;;;;;;20.10;47.00;;;;;;5034601;28;20012;-68
2022/10/19 09:16:24;;;;;;;;;;;20.10;47.00;;;;;;5026538;28;20355;-68
2022/10/19 09:18:56;;;;;;;;;;;20.10;47.00;;;;;;5038629;28;20015;-69
2022/10/19 09:21:24;;;;;;;;;;;20.10;47.00;;;;;;5034128;28;19928;-69
2022/10/19 09:23:54;;;;;;;;;;;20.20;47.10;;;;;;5034596;28;19971;-69
2022/10/19 09:26:21;;;;;;;;;;;20.10;47.00;;;;;;5037969;28;19953;-69
2022/10/19 09:28:49;;;;;;;;;;;20.20;47.10;;;;;;5034952;28;19968;-68
2022/10/19 09:31:20;;;;;;;;;;;20.20;47.00;;;;;;5033479;28;19928;-69
2022/10/19 09:33:48;;;;;;;;;;;20.20;47.10;;;;;;5031125;28;19960;-62
2022/10/19 09:36:15;;;;;;;;;;;20.20;47.20;;;;;;5034045;28;19928;-69
2022/10/19 09:38:42;;;;;;;;;;;20.20;47.20;;;;;;5036019;28;19921;-70
2022/10/19 09:41:13;;;;;;;;;;;20.20;47.20;;;;;;5034500;28;19991;-70
2022/10/19 09:43:39;;;;;;;;;;;20.20;47.20;;;;;;5034736;28;19959;-69
2022/10/19 09:46:09;;;;;;;;;;;20.20;47.20;;;;;;5034717;28;19992;-66
2022/10/19 09:48:38;;;;;;;;;;;20.20;47.20;;;;;;5033075;28;20315;-66
2022/10/19 09:51:10;;;;;;;;;;;20.30;47.30;;;;;;5033897;28;19963;-67
2022/10/19 09:53:37;;;;;;;;;;;20.30;47.30;;;;;;5028414;28;19925;-67
2022/10/19 09:56:05;;;;;;;;;;;20.30;47.40;;;;;;5036875;28;20045;-67
2022/10/19 09:58:31;;;;;;;;;;;20.30;47.30;;;;;;5033921;28;19925;-67
2022/10/19 10:00:58;;;;;;;;;;;20.30;47.30;;;;;;5034391;28;19929;-68
2022/10/19 10:03:26;;;;;;;;;;;20.30;47.40;;;;;;5033688;28;19921;-67
2022/10/19 10:05:54;;;;;;;;;;;20.30;47.40;;;;;;5032741;28;19928;-70
2022/10/19 10:08:21;;;;;;;;;;;20.30;47.40;;;;;;5034493;28;19944;-71
2022/10/19 10:10:52;;;;;;;;;;;20.30;47.40;;;;;;5034175;28;19921;-69
2022/10/19 10:13:21;;;;;;;;;;;20.40;47.60;;;;;;5038841;28;19975;-71
2022/10/19 10:15:51;;;;;;;;;;;20.40;47.60;;;;;;5036387;28;20274;-70
2022/10/19 10:18:18;;;;;;;;;;;20.40;48.20;;;;;;5037737;28;19932;-71
2022/10/19 10:20:57;;;;;;;;;;;20.40;47.60;;;;;;5027321;28;19921;-71
2022/10/19 10:23:25;;;;;;;;;;;20.40;47.60;;;;;;5039163;28;20394;-71
2022/10/19 10:25:54;;;;;;;;;;;20.40;48.10;;;;;;5034243;28;19921;-70
2022/10/19 10:28:21;;;;;;;;;;;20.40;47.50;;;;;;5036465;28;19993;-69
2022/10/19 10:30:48;;;;;;;;;;;20.40;47.50;;;;;;5034589;28;19971;-71
2022/10/19 10:33:15;;;;;;;;;;;20.40;47.60;;;;;;5028563;28;19987;-71
2022/10/19 10:35:41;;;;;;;;;;;20.40;47.60;;;;;;5027738;28;19967;-65
2022/10/19 10:38:12;;;;;;;;;;;20.40;47.50;;;;;;5033094;28;20024;-70
2022/10/19 10:40:39;;;;;;;;;;;20.40;47.40;;;;;;5034709;28;19976;-69
2022/10/19 10:43:06;;;;;;;;;;;20.40;46.70;;;;;;5031716;28;19921;-68
2022/10/19 10:45:33;;;;;;;;;;;20.40;46.20;;;;;;5035282;28;20359;-70
2022/10/19 10:48:05;;;;;;;;;;;20.40;46.20;;;;;;5035822;28;20371;-71
2022/10/19 10:50:34;;;;;;;;;;;20.30;46.00;;;;;;5019748;28;19921;-70
2022/10/19 10:53:01;;;;;;;;;;;20.30;46.10;;;;;;5037713;28;19944;-70
2022/10/19 10:55:30;;;;;;;;;;;20.30;46.20;;;;;;5037124;28;19924;-72
2022/10/19 10:58:02;;;;;;;;;;;20.20;46.30;;;;;;5038154;28;20379;-70
2022/10/19 11:00:28;;;;;;;;;;;20.20;45.70;;;;;;5044436;28;19975;-71
2022/10/19 11:02:56;;;;;;;;;;;20.20;45.40;;;;;;5035401;28;19925;-66
2022/10/19 11:05:23;;;;;;;;;;;20.10;45.30;;;;;;5017832;28;19936;-65
2022/10/19 11:07:51;;;;;;;;;;;20.10;45.30;;;;;;5028812;28;19921;-64
2022/10/19 11:10:23;;;;;;;;;;;20.10;45.60;;;;;;5031862;28;20325;-65
2022/10/19 11:12:53;;;;;;;;;;;20.00;45.80;;;;;;5031987;28;19944;-65
2022/10/19 11:15:20;;;;;;;;;;;20.10;46.10;;;;;;5033328;28;19921;-65
2022/10/19 11:17:51;;;;;;;;;;;20.10;46.20;;;;;;5031555;28;19921;-65
2022/10/19 11:20:18;;;;;;;;;;;20.10;46.40;;;;;;5031728;28;19972;-64
2022/10/19 11:22:45;;;;;;;;;;;20.10;46.50;;;;;;5032383;28;20430;-65
2022/10/19 11:25:19;;;;;;;;;;;20.10;46.60;;;;;;5030713;28;20020;-64
2022/10/19 11:27:47;;;;;;;;;;;20.20;46.70;;;;;;5033506;28;19963;-65
2022/10/19 11:30:16;;;;;;;;;;;20.20;46.80;;;;;;5032161;28;19921;-65
2022/10/19 11:32:49;;;;;;;;;;;20.20;46.80;;;;;;5033010;28;20785;-65
2022/10/19 11:35:22;;;;;;;;;;;20.20;46.90;;;;;;5023211;28;19922;-65
2022/10/19 11:37:51;;;;;;;;;;;20.30;46.90;;;;;;5036053;28;19921;-69
2022/10/19 11:40:19;;;;;;;;;;;20.30;47.00;;;;;;5036094;28;19925;-71
2022/10/19 11:42:51;;;;;;;;;;;20.30;47.00;;;;;;5037307;28;19921;-70
2022/10/19 11:45:22;;;;;;;;;;;20.30;47.00;;;;;;5032206;28;19986;-69
2022/10/19 11:47:53;;;;;;;;;;;20.30;47.00;;;;;;5031705;28;19925;-69
2022/10/19 11:50:23;;;;;;;;;;;20.40;47.10;;;;;;5035607;28;19975;-68
2022/10/19 11:52:52;;;;;;;;;;;20.40;47.10;;;;;;5033449;28;19944;-71
2022/10/19 11:55:22;;;;;;;;;;;20.30;47.10;;;;;;5036925;28;19967;-70
2022/10/19 11:57:50;;;;;;;;;;;20.40;47.20;;;;;;5037929;28;19921;-70
2022/10/19 12:00:18;;;;;;;;;;;20.40;47.30;;;;;;5037485;28;19921;-72
2022/10/19 12:03:04;;;;;;;;;;;20.40;47.30;;;;;;5038086;28;19921;-70
2022/10/19 12:05:33;;;;;;;;;;;20.40;47.40;;;;;;5052454;28;19928;-70
2022/10/19 12:08:03;;;;;;;;;;;20.40;47.40;;;;;;5053392;28;19974;-68
2022/10/19 12:10:32;;;;;;;;;;;20.40;47.50;;;;;;5037032;28;19921;-70
2022/10/19 12:13:01;;;;;;;;;;;20.50;47.50;;;;;;5036438;28;20007;-70
2022/10/19 12:15:28;;;;;;;;;;;20.40;47.50;;;;;;5035791;28;19968;-70
2022/10/19 12:17:56;;;;;;;;;;;20.50;47.80;;;;;;5033982;28;19921;-70
2022/10/19 12:20:26;;;;;;;;;;;20.50;47.60;;;;;;5036073;28;19975;-69
2022/10/19 12:22:52;;;;;;;;;;;20.50;47.60;;;;;;5054785;28;19966;-70
2022/10/19 12:25:19;;;;;;;;;;;20.50;47.60;;;;;;5052225;28;19975;-69
2022/10/19 12:27:47;;;;;;;;;;;20.50;47.60;;;;;;5039581;28;20016;-72
2022/10/19 12:30:15;;;;;;;;;;;20.50;47.70;;;;;;5040488;28;20012;-71
2022/10/19 12:32:44;;;;;;;;;;;20.50;47.70;;;;;;5040857;28;19943;-72
2022/10/19 12:35:17;;;;;;;;;;;20.50;47.70;;;;;;5041211;28;19957;-70
2022/10/19 12:37:47;;;;;;;;;;;20.60;47.80;;;;;;5040639;28;19952;-70
2022/10/19 12:40:27;;;;;;;;;;;20.60;47.80;;;;;;5044732;28;19921;-70
2022/10/19 12:42:56;;;;;;;;;;;20.60;47.80;;;;;;5025596;28;19921;-68
2022/10/19 12:45:25;;;;;;;;;;;20.60;47.90;;;;;;5040861;28;19929;-69
2022/10/19 12:48:06;;;;;;;;;;;20.60;47.80;;;;;;5038970;28;19921;-69
2022/10/19 12:50:48;;;;;;;;;;;20.60;47.80;;;;;;5038562;28;19922;-69
2022/10/19 12:53:23;;;;;;;;;;;20.60;47.80;;;;;;5027576;28;19952;-69
2022/10/19 12:55:57;;;;;;;;;;;20.60;47.80;;;;;;5036896;28;19921;-71
2022/10/19 12:58:24;;;;;;;;;;;20.60;47.90;;;;;;5039114;28;19921;-70
2022/10/19 13:00:57;;;;;;;;;;;20.60;47.90;;;;;;5039574;28;20015;-69
2022/10/19 13:03:30;;;;;;;;;;;20.60;47.90;;;;;;5038237;28;19921;-73
2022/10/19 13:05:58;;;;;;;;;;;20.60;48.00;;;;;;5036110;28;19929;-75
2022/10/19 13:08:27;;;;;;;;;;;20.60;48.00;;;;;;5038472;28;19928;-71
2022/10/19 13:11:03;;;;;;;;;;;20.60;47.90;;;;;;5036199;28;19921;-69
2022/10/19 13:13:49;;;;;;;;;;;20.60;47.90;;;;;;5021387;28;19921;-71
2022/10/19 13:16:43;;;;;;;;;;;20.60;48.00;;;;;;5030296;28;19925;-70
2022/10/19 13:19:20;;;;;;;;;;;20.60;48.00;;;;;;4990144;28;19922;-70
2022/10/19 13:21:51;;;;;;;;;;;20.60;48.00;;;;;;5033187;28;19925;-70
2022/10/19 13:24:27;;;;;;;;;;;20.60;48.00;;;;;;5037451;28;19922;-70
2022/10/19 13:27:08;;;;;;;;;;;20.60;48.00;;;;;;5038008;28;19921;-71
2022/10/19 13:29:39;;;;;;;;;;;20.70;48.10;;;;;;5028843;28;20019;-70
2022/10/19 13:32:20;;;;;;;;;;;20.70;48.10;;;;;;5035734;28;19921;-71
2022/10/19 13:34:47;;;;;;;;;;;20.70;48.00;;;;;;5033213;28;19944;-70
2022/10/19 13:37:14;;;;;;;;;;;20.70;48.00;;;;;;5037428;28;20008;-70
2022/10/19 13:39:42;;;;;;;;;;;20.70;48.00;;;;;;5035342;28;19921;-71
2022/10/19 13:42:13;;;;;;;;;;;20.70;48.00;;;;;;5037526;28;19921;-70
2022/10/19 13:44:41;;;;;;;;;;;20.70;48.00;;;;;;5034698;28;19979;-69
2022/10/19 13:47:30;;;;;;;;;;;20.70;48.00;;;;;;5035693;28;19921;-69
2022/10/19 13:50:05;;;;;;;;;;;20.70;48.00;;;;;;5036367;28;19925;-69
2022/10/19 13:52:50;;;;;;;;;;;20.70;48.00;;;;;;5033518;28;20309;-70
2022/10/19 13:55:27;;;;;;;;;;;20.70;48.00;;;;;;5017472;28;19986;-70
2022/10/19 13:58:00;;;;;;;;;;;20.70;48.00;;;;;;5034297;28;20003;-70
2022/10/19 14:00:27;;;;;;;;;;;20.70;48.10;;;;;;5035110;28;19971;-71
2022/10/19 14:03:09;;;;;;;;;;;20.70;48.10;;;;;;5037184;28;19925;-71
2022/10/19 14:05:45;;;;;;;;;;;20.70;48.00;;;;;;5033976;28;20009;-70
2022/10/19 14:08:15;;;;;;;;;;;20.80;48.10;;;;;;5036881;28;19921;-69
2022/10/19 14:10:51;;;;;;;;;;;20.80;48.10;;;;;;5033578;28;19921;-70
2022/10/19 14:13:21;;;;;;;;;;;20.80;48.20;;;;;;5035293;28;19921;-70
2022/10/19 14:15:50;;;;;;;;;;;20.80;48.20;;;;;;5036527;28;19921;-70
2022/10/19 14:18:22;;;;;;;;;;;20.80;48.10;;;;;;5035919;28;19921;-70
2022/10/19 14:20:55;;;;;;;;;;;20.80;48.10;;;;;;5035529;28;19921;-70
2022/10/19 14:23:23;;;;;;;;;;;20.80;48.20;;;;;;5035805;28;19921;-70